LPLA METAR and TAF weather

Enter ICAO airport designator
Station Type Date Time Source
LPLA METAR 2021/01/22 06:00 UTC NOAA

LPLA 220600Z /////KT 9999 SCT018 13/10 Q1021


Station Type Date Time Source
LPLA Decoded METAR 2021/01/22 06:00 UTC NOAA

Lajes Acores , Portugal (LPLA) 38-46N 027-06W 54M
Jan 22, 2021 - 01:00 AM EST / 2021.01.22 0600 UTC
Visibility: greater than 7 mile(s):0
Sky conditions: partly cloudy
Temperature: 55 F (13 C)
Dew Point: 50 F (10 C)
Relative Humidity: 81%
Pressure (altimeter): 30.15 in. Hg (1021 hPa)
ob: LPLA 220600Z /////KT 9999 SCT018 13/10 Q1021
cycle: 6

Station Type Date Time Source
LPLA TAF 2021/01/22 06:18 UTC NOAA

TAF LPLA 220504Z 2206/2306 VRB05KT 9999 FEW020
BECMG 2206/2207 17010KT 4000 RA SCT010 BKN020
TEMPO 2206/2211 1400 RADZ BR SCT004 BKN007
BECMG 2210/2212 22015KT 9999 NSW SCT010 SCT020
TEMPO 2211/2224 21015G28KT PROB40
TEMPO 2211/2215 BKN009 PROB40
TEMPO 2300/2306 2000 RADZ BKN009

Example: see airport list